createdAt,value
2023-04-23T00:00:12.494Z,3.70
2023-04-23T00:02:42.664Z,3.67
2023-04-23T00:05:12.964Z,3.72
2023-04-23T00:07:41.555Z,3.72
2023-04-23T00:10:10.884Z,3.10
2023-04-23T00:12:40.938Z,3.75
2023-04-23T00:15:10.098Z,3.63
2023-04-23T00:17:42.463Z,4.72
2023-04-23T00:20:11.121Z,3.45
2023-04-23T00:22:39.072Z,3.55
2023-04-23T00:25:07.366Z,3.60
2023-04-23T00:27:35.170Z,3.47
2023-04-23T00:30:04.687Z,3.85
2023-04-23T00:32:32.659Z,3.60
2023-04-23T00:35:01.108Z,3.50
2023-04-23T00:37:28.976Z,3.90
2023-04-23T00:39:56.732Z,4.18
2023-04-23T00:42:24.505Z,3.40
2023-04-23T00:44:52.786Z,3.33
2023-04-23T00:47:22.906Z,3.63
2023-04-23T00:49:53.259Z,3.45
2023-04-23T00:52:21.202Z,3.90
2023-04-23T00:54:48.955Z,3.80
2023-04-23T00:57:16.896Z,3.78
2023-04-23T00:59:44.909Z,3.60
2023-04-23T01:02:13.438Z,4.32
2023-04-23T01:04:45.061Z,3.50
2023-04-23T01:07:13.788Z,3.85
2023-04-23T01:09:42.002Z,3.17
2023-04-23T01:12:11.681Z,4.50
2023-04-23T01:14:39.794Z,3.80
2023-04-23T01:17:09.622Z,3.58
2023-04-23T01:19:37.859Z,3.70
2023-04-23T01:22:10.565Z,3.08
2023-04-23T01:24:39.810Z,3.53
2023-04-23T01:27:07.831Z,3.40
2023-04-23T01:29:36.700Z,3.40
2023-04-23T01:32:04.870Z,3.28
2023-04-23T01:34:33.783Z,3.03
2023-04-23T01:37:03.391Z,3.63
2023-04-23T01:39:32.801Z,4.05
2023-04-23T01:42:01.441Z,3.50
2023-04-23T01:44:29.743Z,3.40
2023-04-23T01:46:57.720Z,3.50
2023-04-23T01:49:25.598Z,3.50
2023-04-23T01:51:53.777Z,3.47
2023-04-23T01:54:21.554Z,3.90
2023-04-23T01:56:54.723Z,3.90
2023-04-23T01:59:23.220Z,4.15
2023-04-23T02:01:51.534Z,3.38
2023-04-23T02:04:19.833Z,3.33
2023-04-23T02:06:49.940Z,3.25
2023-04-23T02:09:17.870Z,3.67
2023-04-23T02:11:45.819Z,3.88
2023-04-23T02:14:14.957Z,4.07
2023-04-23T02:16:42.772Z,3.53
2023-04-23T02:19:12.113Z,3.67
2023-04-23T02:21:40.969Z,3.78
2023-04-23T02:24:08.846Z,3.72
2023-04-23T02:26:36.797Z,3.30
2023-04-23T02:29:09.777Z,3.78
2023-04-23T02:31:47.713Z,3.33
2023-04-23T02:34:15.761Z,3.58
2023-04-23T02:36:43.900Z,3.22
2023-04-23T02:39:12.294Z,4.57
2023-04-23T02:41:40.179Z,3.28
2023-04-23T02:44:08.116Z,3.65
2023-04-23T02:46:37.382Z,3.35
2023-04-23T02:49:07.546Z,3.40
2023-04-23T02:51:35.330Z,3.50
2023-04-23T02:54:04.229Z,3.28
2023-04-23T02:56:32.042Z,3.70
2023-04-23T02:58:59.844Z,3.70
2023-04-23T03:01:27.777Z,3.50
2023-04-23T03:03:56.917Z,3.40
2023-04-23T03:06:26.196Z,3.42
2023-04-23T03:08:54.161Z,3.95
2023-04-23T03:11:22.624Z,3.67
2023-04-23T03:13:50.558Z,3.20
2023-04-23T03:16:18.461Z,3.58
2023-04-23T03:18:46.376Z,3.85
2023-04-23T03:21:14.139Z,3.80
2023-04-23T03:23:43.301Z,4.00
2023-04-23T03:26:11.777Z,3.42
2023-04-23T03:28:39.713Z,3.78
2023-04-23T03:31:07.874Z,3.63
2023-04-23T03:33:35.738Z,3.35
2023-04-23T03:36:03.742Z,3.75
2023-04-23T03:38:31.778Z,3.45
2023-04-23T03:41:01.029Z,3.83
2023-04-23T03:43:28.851Z,3.80
2023-04-23T03:45:56.699Z,3.90
2023-04-23T03:48:24.688Z,3.95
2023-04-23T03:50:52.615Z,3.78
2023-04-23T03:53:20.443Z,3.30
2023-04-23T03:55:48.240Z,3.70
2023-04-23T03:58:17.459Z,3.70
2023-04-23T04:00:45.564Z,4.40
2023-04-23T04:03:13.552Z,3.58
2023-04-23T04:05:41.565Z,3.70
2023-04-23T04:08:09.405Z,4.03
2023-04-23T04:10:37.115Z,3.50
2023-04-23T04:13:05.165Z,3.95
2023-04-23T04:15:34.279Z,3.70
2023-04-23T04:18:02.088Z,3.45
2023-04-23T04:20:29.839Z,3.60
2023-04-23T04:22:57.780Z,3.58
2023-04-23T04:25:25.710Z,4.25
2023-04-23T04:27:53.455Z,3.80
2023-04-23T04:30:21.797Z,4.57
2023-04-23T04:32:51.011Z,3.60
2023-04-23T04:35:19.448Z,3.80
2023-04-23T04:37:47.369Z,3.78
2023-04-23T04:40:15.989Z,3.25
2023-04-23T04:42:43.884Z,3.47
2023-04-23T04:45:12.295Z,3.88
2023-04-23T04:47:40.271Z,3.95
2023-04-23T04:50:11.152Z,3.25
2023-04-23T04:52:40.167Z,3.65
2023-04-23T04:55:08.984Z,3.90
2023-04-23T04:57:36.758Z,4.07
2023-04-23T05:00:22.484Z,4.10
2023-04-23T05:02:52.466Z,4.20
2023-04-23T05:05:23.823Z,4.05
2023-04-23T05:07:51.871Z,3.33
2023-04-23T05:10:19.813Z,3.40
2023-04-23T05:12:48.185Z,3.47
2023-04-23T05:15:16.459Z,3.30
2023-04-23T05:17:45.015Z,3.70
2023-04-23T05:20:13.170Z,3.25
2023-04-23T05:22:43.201Z,3.90
2023-04-23T05:25:12.787Z,3.28
2023-04-23T05:27:41.155Z,3.58
2023-04-23T05:30:10.582Z,3.30
2023-04-23T05:32:39.049Z,3.28
2023-04-23T05:35:07.606Z,3.25
2023-04-23T05:37:35.648Z,3.20
2023-04-23T05:40:07.172Z,3.28
2023-04-23T05:42:36.813Z,3.67
2023-04-23T05:45:07.933Z,3.25
2023-04-23T05:47:36.572Z,3.30
2023-04-23T05:50:04.560Z,3.22
2023-04-23T05:52:33.579Z,3.17
2023-04-23T05:55:01.344Z,3.15
2023-04-23T05:57:30.532Z,3.28
2023-04-23T05:59:58.300Z,2.88
2023-04-23T06:02:26.554Z,3.35
2023-04-23T06:04:54.906Z,3.25
2023-04-23T06:07:22.798Z,3.65
2023-04-23T06:09:50.533Z,3.22
2023-04-23T06:12:19.068Z,3.28
2023-04-23T06:14:48.625Z,3.20
2023-04-23T06:17:16.453Z,3.15
2023-04-23T06:19:44.378Z,3.30
2023-04-23T06:22:12.209Z,3.53
2023-04-23T06:24:40.267Z,3.20
2023-04-23T06:27:08.210Z,3.25
2023-04-23T06:29:36.008Z,3.53
2023-04-23T06:32:05.305Z,3.08
2023-04-23T06:34:33.127Z,3.30
2023-04-23T06:37:01.241Z,3.10
2023-04-23T06:39:29.026Z,3.70
2023-04-23T06:41:58.154Z,3.28
2023-04-23T06:44:25.875Z,2.85
2023-04-23T06:46:53.899Z,3.00
2023-04-23T06:49:23.091Z,3.08
2023-04-23T06:51:50.885Z,2.90
2023-04-23T06:54:19.029Z,3.05
2023-04-23T06:56:46.849Z,2.90
2023-04-23T06:59:14.656Z,2.70
2023-04-23T07:01:42.498Z,2.83
2023-04-23T07:04:10.399Z,2.80
2023-04-23T07:06:39.630Z,2.80
2023-04-23T07:09:07.546Z,3.25
2023-04-23T07:11:39.097Z,3.78
2023-04-23T07:14:06.922Z,2.80
2023-04-23T07:16:34.746Z,2.72
2023-04-23T07:19:03.008Z,2.60
2023-04-23T07:21:31.028Z,3.03
2023-04-23T07:24:03.396Z,3.17
2023-04-23T07:26:31.173Z,2.97
2023-04-23T07:28:58.974Z,2.92
2023-04-23T07:31:26.878Z,3.22
2023-04-23T07:33:54.730Z,4.18
2023-04-23T07:36:22.542Z,3.25
2023-04-23T07:38:51.164Z,2.70
2023-04-23T07:41:20.593Z,2.78
2023-04-23T07:43:49.075Z,2.80
2023-04-23T07:46:16.975Z,2.70
2023-04-23T07:48:44.855Z,2.97
2023-04-23T07:51:13.350Z,2.67
2023-04-23T07:53:41.285Z,2.90
2023-04-23T07:56:09.190Z,2.70
2023-04-23T07:58:38.501Z,2.53
2023-04-23T08:01:06.478Z,2.80
2023-04-23T08:03:34.388Z,2.72
2023-04-23T08:06:04.562Z,2.72
2023-04-23T08:08:32.471Z,2.75
2023-04-23T08:11:00.389Z,2.83
2023-04-23T08:13:28.223Z,2.58
2023-04-23T08:15:57.402Z,2.55
2023-04-23T08:18:25.387Z,2.53
2023-04-23T08:20:53.173Z,2.50
2023-04-23T08:23:21.102Z,3.00
2023-04-23T08:25:48.892Z,2.30
2023-04-23T08:28:16.818Z,2.47
2023-04-23T08:30:44.622Z,2.15
2023-04-23T08:33:13.738Z,2.13
2023-04-23T08:35:41.659Z,2.03
2023-04-23T08:38:09.489Z,2.15
2023-04-23T08:40:38.686Z,2.35
2023-04-23T08:43:14.083Z,2.30
2023-04-23T08:45:42.615Z,2.28
2023-04-23T08:48:11.271Z,2.10
2023-04-23T08:50:44.377Z,2.50
2023-04-23T08:53:12.628Z,2.53
2023-04-23T08:55:41.378Z,2.90
2023-04-23T08:58:09.373Z,2.30
2023-04-23T09:00:37.402Z,3.67
2023-04-23T09:03:05.767Z,2.53
2023-04-23T09:05:34.003Z,2.60
2023-04-23T09:08:03.173Z,1.90
2023-04-23T09:10:30.991Z,1.85
2023-04-23T09:12:58.867Z,1.70
2023-04-23T09:15:26.791Z,2.03
2023-04-23T09:17:54.772Z,1.90
2023-04-23T09:20:25.614Z,1.90
2023-04-23T09:22:53.839Z,1.95
2023-04-23T09:25:24.767Z,1.65
2023-04-23T09:27:53.830Z,1.80
2023-04-23T09:30:21.899Z,1.77
2023-04-23T09:32:50.068Z,1.70
2023-04-23T09:35:19.951Z,2.00
2023-04-23T09:37:50.496Z,1.77
2023-04-23T09:40:20.047Z,1.42
2023-04-23T09:42:52.689Z,1.63
2023-04-23T09:45:21.148Z,2.05
2023-04-23T09:47:53.727Z,1.48
2023-04-23T09:50:32.700Z,1.90
2023-04-23T09:53:00.557Z,1.88
2023-04-23T09:55:35.701Z,1.60
2023-04-23T09:58:05.440Z,1.70
2023-04-23T10:00:38.206Z,2.03
2023-04-23T10:03:07.980Z,1.95
2023-04-23T10:05:59.861Z,3.65
2023-04-23T10:08:28.832Z,1.70
2023-04-23T10:11:09.406Z,1.92
2023-04-23T10:13:39.502Z,2.33
2023-04-23T10:16:21.231Z,2.00
2023-04-23T10:18:52.863Z,1.83
2023-04-23T10:21:21.553Z,1.63
2023-04-23T10:23:52.360Z,1.30
2023-04-23T10:26:24.001Z,1.63
2023-04-23T10:28:56.040Z,1.65
2023-04-23T10:31:24.633Z,2.30
2023-04-23T10:33:58.127Z,2.03
2023-04-23T10:36:29.156Z,1.70
2023-04-23T10:39:00.638Z,1.40
2023-04-23T10:41:38.404Z,1.80
2023-04-23T10:44:12.229Z,1.90
2023-04-23T10:46:40.168Z,1.30
2023-04-23T10:49:14.861Z,1.40
2023-04-23T10:54:15.724Z,2.53
2023-04-23T10:56:44.783Z,1.48
2023-04-23T10:59:23.477Z,1.40
2023-04-23T11:01:52.864Z,1.45
2023-04-23T11:04:23.038Z,1.60
2023-04-23T11:06:59.638Z,1.60
2023-04-23T11:09:32.695Z,1.80
2023-04-23T11:12:01.895Z,1.98
2023-04-23T11:14:42.618Z,1.40
2023-04-23T11:17:13.287Z,1.23
2023-04-23T11:19:42.316Z,1.52
2023-04-23T11:22:15.324Z,1.33
2023-04-23T11:24:45.955Z,1.58
2023-04-23T11:27:16.031Z,1.75
2023-04-23T11:29:46.739Z,1.80
2023-04-23T11:32:17.613Z,1.42
2023-04-23T11:34:47.711Z,1.75
2023-04-23T11:37:16.330Z,1.30
2023-04-23T11:39:45.780Z,1.50
2023-04-23T11:42:14.372Z,1.60
2023-04-23T11:44:43.463Z,1.85
2023-04-23T11:47:13.960Z,2.33
2023-04-23T11:49:42.912Z,1.63
2023-04-23T11:52:11.358Z,1.85
2023-04-23T11:54:42.067Z,1.60
2023-04-23T11:57:10.530Z,1.95
2023-04-23T11:59:38.617Z,1.83
2023-04-23T12:02:06.564Z,2.00
2023-04-23T12:04:36.948Z,1.65
2023-04-23T12:07:19.351Z,1.83
2023-04-23T12:09:51.274Z,2.40
2023-04-23T12:12:19.121Z,1.73
2023-04-23T12:14:46.943Z,1.77
2023-04-23T12:17:14.883Z,2.42
2023-04-23T12:19:45.805Z,2.28
2023-04-23T12:22:13.663Z,2.00
2023-04-23T12:24:49.030Z,2.22
2023-04-23T12:27:20.573Z,2.33
2023-04-23T12:29:48.470Z,2.10
2023-04-23T12:32:16.655Z,2.28
2023-04-23T12:34:54.431Z,1.95
2023-04-23T12:37:26.517Z,2.25
2023-04-23T12:39:56.403Z,2.10
2023-04-23T12:42:24.320Z,2.30
2023-04-23T12:44:52.516Z,1.80
2023-04-23T12:47:20.492Z,2.10
2023-04-23T12:49:53.343Z,2.25
2023-04-23T12:52:22.973Z,2.42
2023-04-23T12:54:52.703Z,1.90
2023-04-23T12:57:23.260Z,2.00
2023-04-23T12:59:51.675Z,2.90
2023-04-23T13:02:19.621Z,1.90
2023-04-23T13:04:47.518Z,1.90
2023-04-23T13:07:15.451Z,4.15
2023-04-23T13:09:44.910Z,2.10
2023-04-23T13:12:13.133Z,2.03
2023-04-23T13:14:40.955Z,2.63
2023-04-23T13:17:08.772Z,2.55
2023-04-23T13:19:39.634Z,2.70
2023-04-23T13:22:07.847Z,2.60
2023-04-23T13:24:35.833Z,3.47
2023-04-23T13:27:05.091Z,2.40
2023-04-23T13:29:33.634Z,2.70
2023-04-23T13:32:01.746Z,2.90
2023-04-23T13:34:30.854Z,3.33
2023-04-23T13:36:59.406Z,3.30
2023-04-23T13:39:27.411Z,3.88
2023-04-23T13:42:08.922Z,3.13
2023-04-23T13:44:38.624Z,3.50
2023-04-23T13:47:06.599Z,3.75
2023-04-23T13:49:34.397Z,4.65
2023-04-23T13:52:06.621Z,3.67
2023-04-23T13:54:35.529Z,3.42
2023-04-23T13:57:03.669Z,3.78
2023-04-23T13:59:31.474Z,3.50
2023-04-23T14:02:01.072Z,4.13
2023-04-23T14:04:28.934Z,4.00
2023-04-23T14:06:56.730Z,4.03
2023-04-23T14:09:24.563Z,4.57
2023-04-23T14:11:52.635Z,4.60
2023-04-23T14:14:20.552Z,4.70
2023-04-23T14:16:48.475Z,4.45
2023-04-23T14:19:18.400Z,4.35
2023-04-23T14:21:46.464Z,5.00
2023-04-23T14:24:19.387Z,4.95
2023-04-23T14:26:49.700Z,5.38
2023-04-23T14:29:26.421Z,5.07
2023-04-23T14:31:54.361Z,4.75
2023-04-23T14:34:23.544Z,5.05
2023-04-23T14:36:52.995Z,4.88
2023-04-23T14:39:23.042Z,5.32
2023-04-23T14:41:51.004Z,4.18
2023-04-23T14:44:19.236Z,4.80
2023-04-23T14:46:49.882Z,3.95
2023-04-23T14:49:17.712Z,4.05
2023-04-23T14:51:46.952Z,3.80
2023-04-23T14:54:14.828Z,3.95
2023-04-23T14:56:43.106Z,4.45
2023-04-23T14:59:11.236Z,4.25
2023-04-23T15:01:39.237Z,4.28
2023-04-23T15:04:07.152Z,5.22
2023-04-23T15:06:35.024Z,4.43
2023-04-23T15:09:04.281Z,4.95
2023-04-23T15:11:33.022Z,6.57
2023-04-23T15:14:04.825Z,6.40
2023-04-23T15:19:07.436Z,6.40
2023-04-23T15:21:36.403Z,7.40
2023-04-23T15:24:07.783Z,7.95
2023-04-23T15:26:36.338Z,7.85
2023-04-23T15:29:04.993Z,7.90
2023-04-23T15:31:33.069Z,7.55
2023-04-23T15:34:01.337Z,7.68
2023-04-23T15:36:29.105Z,6.63
2023-04-23T15:38:56.883Z,6.70
2023-04-23T15:41:27.221Z,6.30
2023-04-23T15:43:55.555Z,6.72
2023-04-23T15:46:23.364Z,6.78
2023-04-23T15:48:51.200Z,5.72
2023-04-23T15:51:19.020Z,6.00
2023-04-23T15:53:47.046Z,6.40
2023-04-23T15:56:14.881Z,5.90
2023-04-23T15:58:44.049Z,5.57
2023-04-23T16:01:11.913Z,6.07
2023-04-23T16:03:39.986Z,5.72
2023-04-23T16:06:09.049Z,6.35
2023-04-23T16:08:38.301Z,5.80
2023-04-23T16:11:07.281Z,5.45
2023-04-23T16:13:35.417Z,5.75
2023-04-23T16:16:04.860Z,6.30
2023-04-23T16:18:32.807Z,6.65
2023-04-23T16:21:01.481Z,6.85
2023-04-23T16:23:29.459Z,6.38
2023-04-23T16:25:57.740Z,6.60
2023-04-23T16:28:25.534Z,6.88
2023-04-23T16:30:53.387Z,6.43
2023-04-23T16:33:24.083Z,7.18
2023-04-23T16:35:51.869Z,7.22
2023-04-23T16:38:19.624Z,7.35
2023-04-23T16:40:47.534Z,7.53
2023-04-23T16:43:15.440Z,7.53
2023-04-23T16:45:43.255Z,7.78
2023-04-23T16:48:13.076Z,9.27
2023-04-23T16:50:43.106Z,8.77
2023-04-23T16:53:11.204Z,9.27
2023-04-23T16:55:39.043Z,9.10
2023-04-23T16:58:07.041Z,8.70
2023-04-23T17:00:34.837Z,10.15
2023-04-23T17:03:02.761Z,9.55
2023-04-23T17:05:35.043Z,9.70
2023-04-23T17:08:04.218Z,9.95
2023-04-23T17:10:32.084Z,10.27
2023-04-23T17:12:59.926Z,10.68
2023-04-23T17:15:27.801Z,10.93
2023-04-23T17:17:56.818Z,10.77
2023-04-23T17:20:24.670Z,9.73
2023-04-23T17:22:52.548Z,9.73
2023-04-23T17:25:22.323Z,10.50
2023-04-23T17:27:50.188Z,9.80
2023-04-23T17:30:18.143Z,10.30
2023-04-23T17:32:46.005Z,11.35
2023-04-23T17:35:13.891Z,10.63
2023-04-23T17:37:41.670Z,10.60
2023-04-23T17:40:10.869Z,10.20
2023-04-23T17:42:40.136Z,10.73
2023-04-23T17:45:08.953Z,10.32
2023-04-23T17:47:37.457Z,10.88
2023-04-23T17:50:06.342Z,10.55
2023-04-23T17:52:34.350Z,10.48
2023-04-23T17:55:02.102Z,10.57
2023-04-23T17:57:29.898Z,9.75
2023-04-23T18:00:02.113Z,10.65
2023-04-23T18:02:30.171Z,10.07
2023-04-23T18:04:59.334Z,10.80
2023-04-23T18:07:27.219Z,10.88
2023-04-23T18:09:54.936Z,11.70
2023-04-23T18:12:22.727Z,12.50
2023-04-23T18:14:50.663Z,13.13
2023-04-23T18:17:19.849Z,13.20
2023-04-23T18:19:49.032Z,13.82
2023-04-23T18:22:18.979Z,14.50
2023-04-23T18:24:47.287Z,15.02
2023-04-23T18:27:15.725Z,14.73
2023-04-23T18:29:44.052Z,15.85
2023-04-23T18:32:20.971Z,15.40
2023-04-23T18:34:53.416Z,16.95
2023-04-23T18:37:33.834Z,16.40
2023-04-23T18:40:01.639Z,16.25
2023-04-23T18:42:29.517Z,17.67
2023-04-23T18:44:57.382Z,18.38
2023-04-23T18:47:31.454Z,18.50
2023-04-23T18:50:05.294Z,19.50
2023-04-23T18:52:33.537Z,19.50
2023-04-23T18:55:01.932Z,19.08
2023-04-23T18:57:29.684Z,19.90
2023-04-23T18:59:57.390Z,19.75
2023-04-23T19:02:35.105Z,19.95
2023-04-23T19:05:05.735Z,20.10
2023-04-23T19:07:37.341Z,21.42
2023-04-23T19:10:05.734Z,20.15
2023-04-23T19:12:33.544Z,22.02
2023-04-23T19:15:01.317Z,22.15
2023-04-23T19:17:29.153Z,22.33
2023-04-23T19:19:57.056Z,22.05
2023-04-23T19:22:26.379Z,22.40
2023-04-23T19:24:54.521Z,24.13
2023-04-23T19:27:22.452Z,24.45
2023-04-23T19:29:52.434Z,24.58
2023-04-23T19:32:20.210Z,25.20
2023-04-23T19:34:47.998Z,24.85
2023-04-23T19:37:15.820Z,25.30
2023-04-23T19:39:45.328Z,24.88
2023-04-23T19:42:13.215Z,25.30
2023-04-23T19:44:40.969Z,25.70
2023-04-23T19:47:08.959Z,24.27
2023-04-23T19:49:36.824Z,26.50
2023-04-23T19:52:05.244Z,25.60
2023-04-23T19:54:33.002Z,26.70
2023-04-23T19:57:03.426Z,27.83
2023-04-23T19:59:31.510Z,27.75
2023-04-23T20:01:59.268Z,27.25
2023-04-23T20:04:27.200Z,27.42
2023-04-23T20:06:55.322Z,28.25
2023-04-23T20:09:25.179Z,28.50
2023-04-23T20:11:53.572Z,28.60
2023-04-23T20:14:22.997Z,28.40
2023-04-23T20:16:50.961Z,28.58
2023-04-23T20:19:19.308Z,27.50
2023-04-23T20:21:47.344Z,27.40
2023-04-23T20:24:17.297Z,27.23
2023-04-23T20:26:45.089Z,27.02
2023-04-23T20:29:13.502Z,28.65
2023-04-23T20:31:42.842Z,28.35
2023-04-23T20:34:11.108Z,27.95
2023-04-23T20:36:38.966Z,26.90
2023-04-23T20:39:06.894Z,28.08
2023-04-23T20:41:36.640Z,26.13
2023-04-23T20:44:06.016Z,24.25
2023-04-23T20:46:34.211Z,23.20
2023-04-23T20:49:04.073Z,21.58
2023-04-23T20:51:34.288Z,21.85
2023-04-23T20:54:03.065Z,21.58
2023-04-23T20:56:31.585Z,20.35
2023-04-23T20:58:59.540Z,19.88
2023-04-23T21:01:27.770Z,19.88
2023-04-23T21:03:56.919Z,19.98
2023-04-23T21:06:26.356Z,19.40
2023-04-23T21:08:54.158Z,19.15
2023-04-23T21:11:22.107Z,19.48
2023-04-23T21:13:50.123Z,19.30
2023-04-23T21:16:19.083Z,19.95
2023-04-23T21:18:47.598Z,19.35
2023-04-23T21:21:15.493Z,19.90
2023-04-23T21:23:44.623Z,19.38
2023-04-23T21:26:13.128Z,20.17
2023-04-23T21:28:41.003Z,19.38
2023-04-23T21:31:14.814Z,14.02
2023-04-23T21:33:42.680Z,11.98
2023-04-23T21:36:10.768Z,10.07
2023-04-23T21:38:38.542Z,9.35
2023-04-23T21:41:08.651Z,8.18
2023-04-23T21:43:36.386Z,6.85
2023-04-23T21:46:04.236Z,7.15
2023-04-23T21:48:33.487Z,6.90
2023-04-23T21:51:02.310Z,6.53
2023-04-23T21:53:30.224Z,6.40
2023-04-23T21:55:58.383Z,6.68
2023-04-23T21:58:28.175Z,6.20
2023-04-23T22:00:56.095Z,6.30
2023-04-23T22:03:38.344Z,6.28
2023-04-23T22:06:08.110Z,6.47
2023-04-23T22:08:38.006Z,6.63
2023-04-23T22:11:06.887Z,6.22
2023-04-23T22:13:36.604Z,6.13
2023-04-23T22:16:10.707Z,6.53
2023-04-23T22:18:44.775Z,6.15
2023-04-23T22:21:13.309Z,6.28
2023-04-23T22:23:41.240Z,5.93
2023-04-23T22:26:09.015Z,6.28
2023-04-23T22:28:38.184Z,5.93
2023-04-23T22:31:06.049Z,5.85
2023-04-23T22:33:35.039Z,5.25
2023-04-23T22:36:02.996Z,5.20
2023-04-23T22:38:30.805Z,5.70
2023-04-23T22:40:58.607Z,4.80
2023-04-23T22:43:44.152Z,5.57
2023-04-23T22:46:13.942Z,5.15
2023-04-23T22:48:44.671Z,4.70
2023-04-23T22:51:12.731Z,5.07
2023-04-23T22:53:40.614Z,5.28
2023-04-23T22:56:08.589Z,4.90
2023-04-23T22:58:37.106Z,4.90
2023-04-23T23:01:05.195Z,4.68
2023-04-23T23:03:34.471Z,4.88
2023-04-23T23:06:03.042Z,4.75
2023-04-23T23:08:30.844Z,4.60
2023-04-23T23:10:58.634Z,4.68
2023-04-23T23:13:26.526Z,5.13
2023-04-23T23:15:54.373Z,4.53
2023-04-23T23:18:22.152Z,5.05
2023-04-23T23:20:51.436Z,4.97
2023-04-23T23:23:19.420Z,4.75
2023-04-23T23:25:47.197Z,4.60
2023-04-23T23:28:14.998Z,4.72
2023-04-23T23:30:43.390Z,4.53
2023-04-23T23:33:13.911Z,4.20
2023-04-23T23:35:43.531Z,4.90
2023-04-23T23:38:12.955Z,4.57
2023-04-23T23:40:40.993Z,4.25
2023-04-23T23:43:08.949Z,4.20
2023-04-23T23:45:36.761Z,3.90
2023-04-23T23:48:05.686Z,3.92
2023-04-23T23:50:33.750Z,3.70
2023-04-23T23:53:06.305Z,3.00
2023-04-23T23:55:37.679Z,3.15
2023-04-23T23:58:06.219Z,3.15
